sensor_id;sensor_type;location;lat;lon;timestamp;pressure;altitude;pressure_sealevel;temperature;humidity
20897;BME280;10608;42.600;23.398;2022-12-29T00:01:35;62864.19;;;-138.16;100.00
20897;BME280;10608;42.600;23.398;2022-12-29T00:04:01;62864.19;;;-138.16;100.00
20897;BME280;10608;42.600;23.398;2022-12-29T00:06:27;62864.19;;;-138.16;100.00
20897;BME280;10608;42.600;23.398;2022-12-29T00:08:52;62864.19;;;-138.16;100.00
20897;BME280;10608;42.600;23.398;2022-12-29T00:11:20;62864.19;;;-138.16;100.00
20897;BME280;10608;42.600;23.398;2022-12-29T00:13:46;62864.19;;;-138.16;100.00
20897;BME280;10608;42.600;23.398;2022-12-29T00:16:31;62864.19;;;-138.16;100.00
20897;BME280;10608;42.600;23.398;2022-12-29T00:18:57;62864.19;;;-138.16;100.00
20897;BME280;10608;42.600;23.398;2022-12-29T00:21:24;62864.19;;;-138.16;100.00
20897;BME280;10608;42.600;23.398;2022-12-29T00:24:14;62864.19;;;-138.16;100.00
20897;BME280;10608;42.600;23.398;2022-12-29T00:29:48;62864.19;;;-138.16;100.00
20897;BME280;10608;42.600;23.398;2022-12-29T00:32:33;62864.19;;;-138.16;100.00
20897;BME280;10608;42.600;23.398;2022-12-29T00:35:31;62864.19;;;-138.16;100.00
20897;BME280;10608;42.600;23.398;2022-12-29T00:38:02;62864.19;;;-138.16;100.00
20897;BME280;10608;42.600;23.398;2022-12-29T00:40:47;62864.19;;;-138.16;100.00
20897;BME280;10608;42.600;23.398;2022-12-29T00:43:30;62864.19;;;-138.16;100.00
20897;BME280;10608;42.600;23.398;2022-12-29T00:46:15;62864.19;;;-138.16;100.00
20897;BME280;10608;42.600;23.398;2022-12-29T00:48:40;62864.19;;;-138.16;100.00
20897;BME280;10608;42.600;23.398;2022-12-29T00:51:24;62864.19;;;-138.16;100.00
20897;BME280;10608;42.600;23.398;2022-12-29T00:53:49;62864.19;;;-138.16;100.00
20897;BME280;10608;42.600;23.398;2022-12-29T00:56:14;62864.19;;;-138.16;100.00
20897;BME280;10608;42.600;23.398;2022-12-29T00:58:40;62864.19;;;-138.16;100.00
20897;BME280;10608;42.600;23.398;2022-12-29T01:01:07;62864.19;;;-138.16;100.00
20897;BME280;10608;42.600;23.398;2022-12-29T01:03:36;62864.19;;;-138.16;100.00
20897;BME280;10608;42.600;23.398;2022-12-29T01:06:05;62864.19;;;-138.16;100.00
20897;BME280;10608;42.600;23.398;2022-12-29T01:08:31;62864.19;;;-138.16;100.00
20897;BME280;10608;42.600;23.398;2022-12-29T01:11:07;62864.19;;;-138.16;100.00
20897;BME280;10608;42.600;23.398;2022-12-29T01:13:34;62864.19;;;-138.16;100.00
20897;BME280;10608;42.600;23.398;2022-12-29T01:16:00;62864.19;;;-138.16;100.00
20897;BME280;10608;42.600;23.398;2022-12-29T01:18:26;62864.19;;;-138.16;100.00
20897;BME280;10608;42.600;23.398;2022-12-29T01:20:58;62864.19;;;-138.16;100.00
20897;BME280;10608;42.600;23.398;2022-12-29T01:23:23;62864.19;;;-138.16;100.00
20897;BME280;10608;42.600;23.398;2022-12-29T01:25:49;62864.19;;;-138.16;100.00
20897;BME280;10608;42.600;23.398;2022-12-29T01:28:14;62864.19;;;-138.16;100.00
20897;BME280;10608;42.600;23.398;2022-12-29T01:30:40;62864.19;;;-138.16;100.00
20897;BME280;10608;42.600;23.398;2022-12-29T01:33:05;62864.19;;;-138.16;100.00
20897;BME280;10608;42.600;23.398;2022-12-29T01:35:30;62864.19;;;-138.16;100.00
20897;BME280;10608;42.600;23.398;2022-12-29T01:37:56;62864.19;;;-138.16;100.00
20897;BME280;10608;42.600;23.398;2022-12-29T01:40:21;62864.19;;;-138.16;100.00
20897;BME280;10608;42.600;23.398;2022-12-29T01:42:47;62864.19;;;-138.16;100.00
20897;BME280;10608;42.600;23.398;2022-12-29T01:45:14;62864.19;;;-138.16;100.00
20897;BME280;10608;42.600;23.398;2022-12-29T01:47:44;62864.19;;;-138.16;100.00
20897;BME280;10608;42.600;23.398;2022-12-29T01:50:22;62864.19;;;-138.16;100.00
20897;BME280;10608;42.600;23.398;2022-12-29T01:52:56;62864.19;;;-138.16;100.00
20897;BME280;10608;42.600;23.398;2022-12-29T01:55:24;62864.19;;;-138.16;100.00
20897;BME280;10608;42.600;23.398;2022-12-29T01:57:53;62864.19;;;-138.16;100.00
20897;BME280;10608;42.600;23.398;2022-12-29T02:00:21;62864.19;;;-138.16;100.00
20897;BME280;10608;42.600;23.398;2022-12-29T02:02:53;62864.19;;;-138.16;100.00
20897;BME280;10608;42.600;23.398;2022-12-29T02:07:52;62864.19;;;-138.16;100.00
20897;BME280;10608;42.600;23.398;2022-12-29T02:10:20;62864.19;;;-138.16;100.00
20897;BME280;10608;42.600;23.398;2022-12-29T02:12:46;62864.19;;;-138.16;100.00
20897;BME280;10608;42.600;23.398;2022-12-29T02:15:12;62864.19;;;-138.16;100.00
20897;BME280;10608;42.600;23.398;2022-12-29T02:20:25;62864.19;;;-138.16;100.00
20897;BME280;10608;42.600;23.398;2022-12-29T02:32:01;62864.19;;;-138.16;100.00
20897;BME280;10608;42.600;23.398;2022-12-29T02:34:57;62864.19;;;-138.16;100.00
20897;BME280;10608;42.600;23.398;2022-12-29T02:45:56;62864.19;;;-138.16;100.00
20897;BME280;10608;42.600;23.398;2022-12-29T02:51:03;62864.19;;;-138.16;100.00
20897;BME280;10608;42.600;23.398;2022-12-29T02:53:32;62864.19;;;-138.16;100.00
20897;BME280;10608;42.600;23.398;2022-12-29T02:56:17;62864.19;;;-138.16;100.00
20897;BME280;10608;42.600;23.398;2022-12-29T02:58:42;62864.19;;;-138.16;100.00
20897;BME280;10608;42.600;23.398;2022-12-29T03:01:54;62864.19;;;-138.16;100.00
20897;BME280;10608;42.600;23.398;2022-12-29T03:12:58;62864.19;;;-138.16;100.00
20897;BME280;10608;42.600;23.398;2022-12-29T03:15:53;62864.19;;;-138.16;100.00
20897;BME280;10608;42.600;23.398;2022-12-29T03:23:42;62864.19;;;-138.16;100.00
20897;BME280;10608;42.600;23.398;2022-12-29T03:26:11;62864.19;;;-138.16;100.00
20897;BME280;10608;42.600;23.398;2022-12-29T03:28:46;62864.19;;;-138.16;100.00
20897;BME280;10608;42.600;23.398;2022-12-29T03:31:12;62864.19;;;-138.16;100.00
20897;BME280;10608;42.600;23.398;2022-12-29T03:33:41;62864.19;;;-138.16;100.00
20897;BME280;10608;42.600;23.398;2022-12-29T03:36:09;62864.19;;;-138.16;100.00
20897;BME280;10608;42.600;23.398;2022-12-29T03:38:44;62864.19;;;-138.16;100.00
20897;BME280;10608;42.600;23.398;2022-12-29T03:41:15;62864.19;;;-138.16;100.00
20897;BME280;10608;42.600;23.398;2022-12-29T03:43:42;62864.19;;;-138.16;100.00
20897;BME280;10608;42.600;23.398;2022-12-29T03:46:07;62864.19;;;-138.16;100.00
20897;BME280;10608;42.600;23.398;2022-12-29T03:48:33;62864.19;;;-138.16;100.00
20897;BME280;10608;42.600;23.398;2022-12-29T03:50:58;62864.19;;;-138.16;100.00
20897;BME280;10608;42.600;23.398;2022-12-29T03:53:24;62864.19;;;-138.16;100.00
20897;BME280;10608;42.600;23.398;2022-12-29T03:55:49;62864.19;;;-138.16;100.00
20897;BME280;10608;42.600;23.398;2022-12-29T03:58:15;62864.19;;;-138.16;100.00
20897;BME280;10608;42.600;23.398;2022-12-29T04:00:40;62864.19;;;-138.16;100.00
20897;BME280;10608;42.600;23.398;2022-12-29T04:03:05;62864.19;;;-138.16;100.00
20897;BME280;10608;42.600;23.398;2022-12-29T04:05:31;62864.19;;;-138.16;100.00
20897;BME280;10608;42.600;23.398;2022-12-29T04:07:56;62864.19;;;-138.16;100.00
20897;BME280;10608;42.600;23.398;2022-12-29T04:10:22;62864.19;;;-138.16;100.00
20897;BME280;10608;42.600;23.398;2022-12-29T04:12:47;62864.19;;;-138.16;100.00
20897;BME280;10608;42.600;23.398;2022-12-29T04:15:12;62864.19;;;-138.16;100.00
20897;BME280;10608;42.600;23.398;2022-12-29T04:17:38;62864.19;;;-138.16;100.00
20897;BME280;10608;42.600;23.398;2022-12-29T04:20:04;62864.19;;;-138.16;100.00
20897;BME280;10608;42.600;23.398;2022-12-29T04:22:48;62864.19;;;-138.16;100.00
20897;BME280;10608;42.600;23.398;2022-12-29T04:25:13;62864.19;;;-138.16;100.00
20897;BME280;10608;42.600;23.398;2022-12-29T04:27:39;62864.19;;;-138.16;100.00
20897;BME280;10608;42.600;23.398;2022-12-29T04:30:04;62864.19;;;-138.16;100.00
20897;BME280;10608;42.600;23.398;2022-12-29T04:32:30;62864.19;;;-138.16;100.00
20897;BME280;10608;42.600;23.398;2022-12-29T04:34:55;62864.19;;;-138.16;100.00
20897;BME280;10608;42.600;23.398;2022-12-29T04:37:21;62864.19;;;-138.16;100.00
20897;BME280;10608;42.600;23.398;2022-12-29T04:39:46;62864.19;;;-138.16;100.00
20897;BME280;10608;42.600;23.398;2022-12-29T04:42:11;62864.19;;;-138.16;100.00
20897;BME280;10608;42.600;23.398;2022-12-29T04:44:37;62864.19;;;-138.16;100.00
20897;BME280;10608;42.600;23.398;2022-12-29T04:47:02;62864.19;;;-138.16;100.00
20897;BME280;10608;42.600;23.398;2022-12-29T04:49:27;62864.19;;;-138.16;100.00
20897;BME280;10608;42.600;23.398;2022-12-29T04:51:53;62864.19;;;-138.16;100.00
20897;BME280;10608;42.600;23.398;2022-12-29T04:54:18;62864.19;;;-138.16;100.00
20897;BME280;10608;42.600;23.398;2022-12-29T04:56:43;62864.19;;;-138.16;100.00
20897;BME280;10608;42.600;23.398;2022-12-29T04:59:09;62864.19;;;-138.16;100.00
20897;BME280;10608;42.600;23.398;2022-12-29T05:01:34;62864.19;;;-138.16;100.00
20897;BME280;10608;42.600;23.398;2022-12-29T05:03:59;62864.19;;;-138.16;100.00
20897;BME280;10608;42.600;23.398;2022-12-29T05:06:25;62864.19;;;-138.16;100.00
20897;BME280;10608;42.600;23.398;2022-12-29T05:08:50;62864.19;;;-138.16;100.00
20897;BME280;10608;42.600;23.398;2022-12-29T05:11:15;62864.19;;;-138.16;100.00
20897;BME280;10608;42.600;23.398;2022-12-29T05:13:41;62864.19;;;-138.16;100.00
20897;BME280;10608;42.600;23.398;2022-12-29T05:16:06;62864.19;;;-138.16;100.00
20897;BME280;10608;42.600;23.398;2022-12-29T05:18:32;62864.19;;;-138.16;100.00
20897;BME280;10608;42.600;23.398;2022-12-29T05:20:57;62864.19;;;-138.16;100.00
20897;BME280;10608;42.600;23.398;2022-12-29T05:23:22;62864.19;;;-138.16;100.00
20897;BME280;10608;42.600;23.398;2022-12-29T05:25:48;62864.19;;;-138.16;100.00
20897;BME280;10608;42.600;23.398;2022-12-29T05:28:13;62864.19;;;-138.16;100.00
20897;BME280;10608;42.600;23.398;2022-12-29T05:30:39;62864.19;;;-138.16;100.00
20897;BME280;10608;42.600;23.398;2022-12-29T05:33:04;62864.19;;;-138.16;100.00
20897;BME280;10608;42.600;23.398;2022-12-29T05:35:32;62864.19;;;-138.16;100.00
20897;BME280;10608;42.600;23.398;2022-12-29T05:37:57;62864.19;;;-138.16;100.00
20897;BME280;10608;42.600;23.398;2022-12-29T05:40:23;62864.19;;;-138.16;100.00
20897;BME280;10608;42.600;23.398;2022-12-29T05:42:48;62864.19;;;-138.16;100.00
20897;BME280;10608;42.600;23.398;2022-12-29T05:45:14;62864.19;;;-138.16;100.00
20897;BME280;10608;42.600;23.398;2022-12-29T05:47:39;62864.19;;;-138.16;100.00
20897;BME280;10608;42.600;23.398;2022-12-29T05:50:04;62864.19;;;-138.16;100.00
20897;BME280;10608;42.600;23.398;2022-12-29T05:52:30;62864.19;;;-138.16;100.00
20897;BME280;10608;42.600;23.398;2022-12-29T05:54:55;62864.19;;;-138.16;100.00
20897;BME280;10608;42.600;23.398;2022-12-29T05:57:21;62864.19;;;-138.16;100.00
20897;BME280;10608;42.600;23.398;2022-12-29T05:59:46;62864.19;;;-138.16;100.00
20897;BME280;10608;42.600;23.398;2022-12-29T06:02:11;62864.19;;;-138.16;100.00
20897;BME280;10608;42.600;23.398;2022-12-29T06:04:37;62864.19;;;-138.16;100.00
20897;BME280;10608;42.600;23.398;2022-12-29T06:07:02;62864.19;;;-138.16;100.00
20897;BME280;10608;42.600;23.398;2022-12-29T06:09:28;62864.19;;;-138.16;100.00
20897;BME280;10608;42.600;23.398;2022-12-29T06:11:53;62864.19;;;-138.16;100.00
20897;BME280;10608;42.600;23.398;2022-12-29T06:14:18;62864.19;;;-138.16;100.00
20897;BME280;10608;42.600;23.398;2022-12-29T06:16:44;62864.19;;;-138.16;100.00
20897;BME280;10608;42.600;23.398;2022-12-29T06:19:09;62864.19;;;-138.16;100.00
20897;BME280;10608;42.600;23.398;2022-12-29T06:21:34;62864.19;;;-138.16;100.00
20897;BME280;10608;42.600;23.398;2022-12-29T06:24:00;62864.19;;;-138.16;100.00
20897;BME280;10608;42.600;23.398;2022-12-29T06:26:25;62864.19;;;-138.16;100.00
20897;BME280;10608;42.600;23.398;2022-12-29T06:28:51;62864.19;;;-138.16;100.00
20897;BME280;10608;42.600;23.398;2022-12-29T06:31:16;62864.19;;;-138.16;100.00
20897;BME280;10608;42.600;23.398;2022-12-29T06:33:41;62864.19;;;-138.16;100.00
20897;BME280;10608;42.600;23.398;2022-12-29T06:36:07;62864.19;;;-138.16;100.00
20897;BME280;10608;42.600;23.398;2022-12-29T06:38:32;62864.19;;;-138.16;100.00
20897;BME280;10608;42.600;23.398;2022-12-29T06:40:58;62864.19;;;-138.16;100.00
20897;BME280;10608;42.600;23.398;2022-12-29T06:43:23;62864.19;;;-138.16;100.00
20897;BME280;10608;42.600;23.398;2022-12-29T06:45:48;62864.19;;;-138.16;100.00
20897;BME280;10608;42.600;23.398;2022-12-29T06:48:14;62864.19;;;-138.16;100.00
20897;BME280;10608;42.600;23.398;2022-12-29T06:50:39;62864.19;;;-138.16;100.00
20897;BME280;10608;42.600;23.398;2022-12-29T06:53:05;62864.19;;;-138.16;100.00
20897;BME280;10608;42.600;23.398;2022-12-29T06:55:30;62864.19;;;-138.16;100.00
20897;BME280;10608;42.600;23.398;2022-12-29T06:57:57;62864.19;;;-138.16;100.00
20897;BME280;10608;42.600;23.398;2022-12-29T07:00:23;62864.19;;;-138.16;100.00
20897;BME280;10608;42.600;23.398;2022-12-29T07:02:49;62864.19;;;-138.16;100.00
20897;BME280;10608;42.600;23.398;2022-12-29T07:05:15;62864.19;;;-138.16;100.00
20897;BME280;10608;42.600;23.398;2022-12-29T07:07:40;62864.19;;;-138.16;100.00
20897;BME280;10608;42.600;23.398;2022-12-29T07:10:06;62864.19;;;-138.16;100.00
20897;BME280;10608;42.600;23.398;2022-12-29T07:12:31;62864.19;;;-138.16;100.00
20897;BME280;10608;42.600;23.398;2022-12-29T07:14:56;62864.19;;;-138.16;100.00
20897;BME280;10608;42.600;23.398;2022-12-29T07:17:22;62864.19;;;-138.16;100.00
20897;BME280;10608;42.600;23.398;2022-12-29T07:19:47;62864.19;;;-138.16;100.00
20897;BME280;10608;42.600;23.398;2022-12-29T07:22:13;62864.19;;;-138.16;100.00
20897;BME280;10608;42.600;23.398;2022-12-29T07:24:38;62864.19;;;-138.16;100.00
20897;BME280;10608;42.600;23.398;2022-12-29T07:27:04;62864.19;;;-138.16;100.00
20897;BME280;10608;42.600;23.398;2022-12-29T07:29:29;62864.19;;;-138.16;100.00
20897;BME280;10608;42.600;23.398;2022-12-29T07:31:55;62864.19;;;-138.16;100.00
20897;BME280;10608;42.600;23.398;2022-12-29T07:34:20;62864.19;;;-138.16;100.00
20897;BME280;10608;42.600;23.398;2022-12-29T07:36:45;62864.19;;;-138.16;100.00
20897;BME280;10608;42.600;23.398;2022-12-29T07:39:11;62864.19;;;-138.16;100.00
20897;BME280;10608;42.600;23.398;2022-12-29T07:41:36;62864.19;;;-138.16;100.00
20897;BME280;10608;42.600;23.398;2022-12-29T07:44:02;62864.19;;;-138.16;100.00
20897;BME280;10608;42.600;23.398;2022-12-29T07:46:28;62864.19;;;-138.16;100.00
20897;BME280;10608;42.600;23.398;2022-12-29T07:48:53;62864.19;;;-138.16;100.00
20897;BME280;10608;42.600;23.398;2022-12-29T07:51:19;62864.19;;;-138.16;100.00
20897;BME280;10608;42.600;23.398;2022-12-29T07:53:44;62864.19;;;-138.16;100.00
20897;BME280;10608;42.600;23.398;2022-12-29T07:56:09;62864.19;;;-138.16;100.00
20897;BME280;10608;42.600;23.398;2022-12-29T07:58:35;62864.19;;;-138.16;100.00
20897;BME280;10608;42.600;23.398;2022-12-29T08:01:00;62864.19;;;-138.16;100.00
20897;BME280;10608;42.600;23.398;2022-12-29T08:03:26;62864.19;;;-138.16;100.00
20897;BME280;10608;42.600;23.398;2022-12-29T08:05:51;62864.19;;;-138.16;100.00
20897;BME280;10608;42.600;23.398;2022-12-29T08:08:17;62864.19;;;-138.16;100.00
20897;BME280;10608;42.600;23.398;2022-12-29T08:10:42;62864.19;;;-138.16;100.00
20897;BME280;10608;42.600;23.398;2022-12-29T08:13:08;62864.19;;;-138.16;100.00
20897;BME280;10608;42.600;23.398;2022-12-29T08:15:33;62864.19;;;-138.16;100.00
20897;BME280;10608;42.600;23.398;2022-12-29T08:17:58;62864.19;;;-138.16;100.00
20897;BME280;10608;42.600;23.398;2022-12-29T08:20:24;62864.19;;;-138.16;100.00
20897;BME280;10608;42.600;23.398;2022-12-29T08:22:50;62864.19;;;-138.16;100.00
20897;BME280;10608;42.600;23.398;2022-12-29T08:25:16;62864.19;;;-138.16;100.00
20897;BME280;10608;42.600;23.398;2022-12-29T08:27:41;62864.19;;;-138.16;100.00
20897;BME280;10608;42.600;23.398;2022-12-29T08:30:08;62864.19;;;-138.16;100.00
20897;BME280;10608;42.600;23.398;2022-12-29T08:32:33;62864.19;;;-138.16;100.00
20897;BME280;10608;42.600;23.398;2022-12-29T08:34:59;62864.19;;;-138.16;100.00
20897;BME280;10608;42.600;23.398;2022-12-29T08:37:24;62864.19;;;-138.16;100.00
20897;BME280;10608;42.600;23.398;2022-12-29T08:39:49;62864.19;;;-138.16;100.00
20897;BME280;10608;42.600;23.398;2022-12-29T08:42:15;62864.19;;;-138.16;100.00
20897;BME280;10608;42.600;23.398;2022-12-29T08:44:40;62864.19;;;-138.16;100.00
20897;BME280;10608;42.600;23.398;2022-12-29T08:47:05;62864.19;;;-138.16;100.00
20897;BME280;10608;42.600;23.398;2022-12-29T08:49:31;62864.19;;;-138.16;100.00
20897;BME280;10608;42.600;23.398;2022-12-29T08:51:58;62864.19;;;-138.16;100.00
20897;BME280;10608;42.600;23.398;2022-12-29T08:54:24;62864.19;;;-138.16;100.00
20897;BME280;10608;42.600;23.398;2022-12-29T08:56:50;62864.19;;;-138.16;100.00
20897;BME280;10608;42.600;23.398;2022-12-29T08:59:15;62864.19;;;-138.16;100.00
20897;BME280;10608;42.600;23.398;2022-12-29T09:01:40;62864.19;;;-138.16;100.00
20897;BME280;10608;42.600;23.398;2022-12-29T09:04:06;62864.19;;;-138.16;100.00
20897;BME280;10608;42.600;23.398;2022-12-29T09:06:32;62864.19;;;-138.16;100.00
20897;BME280;10608;42.600;23.398;2022-12-29T09:08:58;62864.19;;;-138.16;100.00
20897;BME280;10608;42.600;23.398;2022-12-29T09:11:24;62864.19;;;-138.16;100.00
20897;BME280;10608;42.600;23.398;2022-12-29T09:13:50;62864.19;;;-138.16;100.00
20897;BME280;10608;42.600;23.398;2022-12-29T09:16:17;62864.19;;;-138.16;100.00
20897;BME280;10608;42.600;23.398;2022-12-29T09:18:43;62864.19;;;-138.16;100.00
20897;BME280;10608;42.600;23.398;2022-12-29T09:21:09;62864.19;;;-138.16;100.00
20897;BME280;10608;42.600;23.398;2022-12-29T09:23:35;62864.19;;;-138.16;100.00
20897;BME280;10608;42.600;23.398;2022-12-29T09:26:01;62864.19;;;-138.16;100.00
20897;BME280;10608;42.600;23.398;2022-12-29T09:28:27;62864.19;;;-138.16;100.00
20897;BME280;10608;42.600;23.398;2022-12-29T09:30:54;62864.19;;;-138.16;100.00
20897;BME280;10608;42.600;23.398;2022-12-29T09:33:20;62864.19;;;-138.16;100.00
20897;BME280;10608;42.600;23.398;2022-12-29T09:35:52;62864.19;;;-138.16;100.00
20897;BME280;10608;42.600;23.398;2022-12-29T09:38:18;62864.19;;;-138.16;100.00
20897;BME280;10608;42.600;23.398;2022-12-29T09:40:52;62864.19;;;-138.16;100.00
20897;BME280;10608;42.600;23.398;2022-12-29T09:48:36;62864.19;;;-138.16;100.00
20897;BME280;10608;42.600;23.398;2022-12-29T09:51:07;62864.19;;;-138.16;100.00
20897;BME280;10608;42.600;23.398;2022-12-29T09:53:43;62864.19;;;-138.16;100.00
20897;BME280;10608;42.600;23.398;2022-12-29T09:56:16;62864.19;;;-138.16;100.00
20897;BME280;10608;42.600;23.398;2022-12-29T09:58:46;62864.19;;;-138.16;100.00
20897;BME280;10608;42.600;23.398;2022-12-29T10:04:07;62864.19;;;-138.16;100.00
20897;BME280;10608;42.600;23.398;2022-12-29T10:09:20;62864.19;;;-138.16;100.00
20897;BME280;10608;42.600;23.398;2022-12-29T10:17:24;62864.19;;;-138.16;100.00
20897;BME280;10608;42.600;23.398;2022-12-29T10:25:11;62864.19;;;-138.16;100.00
20897;BME280;10608;42.600;23.398;2022-12-29T10:27:37;62864.19;;;-138.16;100.00
20897;BME280;10608;42.600;23.398;2022-12-29T10:30:03;62864.19;;;-138.16;100.00
20897;BME280;10608;42.600;23.398;2022-12-29T10:32:39;62864.19;;;-138.16;100.00
20897;BME280;10608;42.600;23.398;2022-12-29T10:35:19;62864.19;;;-138.16;100.00
20897;BME280;10608;42.600;23.398;2022-12-29T10:37:56;62864.19;;;-138.16;100.00
20897;BME280;10608;42.600;23.398;2022-12-29T10:40:46;62864.19;;;-138.16;100.00
20897;BME280;10608;42.600;23.398;2022-12-29T10:43:27;62864.19;;;-138.16;76.27
20897;BME280;10608;42.600;23.398;2022-12-29T10:45:57;53207.22;;;-138.15;29.47
20897;BME280;10608;42.600;23.398;2022-12-29T10:48:34;53226.94;;;-138.15;30.70
20897;BME280;10608;42.600;23.398;2022-12-29T10:51:02;53215.09;;;-138.15;31.73
20897;BME280;10608;42.600;23.398;2022-12-29T10:53:43;53228.91;;;-138.15;31.40
20897;BME280;10608;42.600;23.398;2022-12-29T10:58:57;53244.69;;;-138.15;32.53
20897;BME280;10608;42.600;23.398;2022-12-29T11:01:31;53234.84;;;-138.15;33.18
20897;BME280;10608;42.600;23.398;2022-12-29T11:06:57;53226.94;;;-138.15;33.22
20897;BME280;10608;42.600;23.398;2022-12-29T11:09:31;53256.53;;;-138.15;32.94
20897;BME280;10608;42.600;23.398;2022-12-29T11:11:58;53248.63;;;-138.15;32.12
20897;BME280;10608;42.600;23.398;2022-12-29T11:14:31;53250.63;;;-138.15;31.11
20897;BME280;10608;42.600;23.398;2022-12-29T11:17:02;53226.94;;;-138.15;29.75
20897;BME280;10608;42.600;23.398;2022-12-29T11:19:30;53254.56;;;-138.15;32.10
20897;BME280;10608;42.600;23.398;2022-12-29T11:22:29;53248.63;;;-138.15;34.90
20897;BME280;10608;42.600;23.398;2022-12-29T11:24:54;53262.44;;;-138.15;37.32
20897;BME280;10608;42.600;23.398;2022-12-29T11:27:29;53260.47;;;-138.15;40.16
20897;BME280;10608;42.600;23.398;2022-12-29T11:29:55;53278.22;;;-138.15;41.62
20897;BME280;10608;42.600;23.398;2022-12-29T11:32:26;53284.16;;;-138.15;45.31
20897;BME280;10608;42.600;23.398;2022-12-29T11:34:52;53301.91;;;-138.15;45.09
20897;BME280;10608;42.600;23.398;2022-12-29T11:37:28;53297.97;;;-138.15;45.25
20897;BME280;10608;42.600;23.398;2022-12-29T11:39:57;53307.81;;;-138.15;46.54
20897;BME280;10608;42.600;23.398;2022-12-29T11:42:35;53313.75;;;-138.15;46.61
20897;BME280;10608;42.600;23.398;2022-12-29T11:45:16;53319.66;;;-138.15;46.36
20897;BME280;10608;42.600;23.398;2022-12-29T11:47:44;53290.06;;;-138.15;47.49
20897;BME280;10608;42.600;23.398;2022-12-29T11:50:17;53307.81;;;-138.15;48.09
20897;BME280;10608;42.600;23.398;2022-12-29T11:52:44;53321.63;;;-138.15;49.77
20897;BME280;10608;42.600;23.398;2022-12-29T11:55:18;53341.34;;;-138.15;49.16
20897;BME280;10608;42.600;23.398;2022-12-29T11:57:45;53339.38;;;-138.15;51.23
20897;BME280;10608;42.600;23.398;2022-12-29T12:00:20;53321.63;;;-138.15;51.13
20897;BME280;10608;42.600;23.398;2022-12-29T12:05:43;53282.19;;;-138.15;51.20
20897;BME280;10608;42.600;23.398;2022-12-29T12:08:21;53317.69;;;-138.15;54.02
20897;BME280;10608;42.600;23.398;2022-12-29T12:10:54;53321.63;;;-138.15;52.36
20897;BME280;10608;42.600;23.398;2022-12-29T12:13:34;53286.13;;;-138.15;51.86
20897;BME280;10608;42.600;23.398;2022-12-29T12:16:08;53307.81;;;-138.15;52.32
20897;BME280;10608;42.600;23.398;2022-12-29T12:18:41;53301.91;;;-138.15;51.78
20897;BME280;10608;42.600;23.398;2022-12-29T12:21:20;53282.19;;;-138.15;51.42
20897;BME280;10608;42.600;23.398;2022-12-29T12:29:24;53297.97;;;-138.15;52.34
20897;BME280;10608;42.600;23.398;2022-12-29T12:32:01;53307.81;;;-138.15;52.11
20897;BME280;10608;42.600;23.398;2022-12-29T12:34:36;53282.19;;;-138.15;51.00
20897;BME280;10608;42.600;23.398;2022-12-29T13:12:10;53284.16;;;-138.15;52.66
20897;BME280;10608;42.600;23.398;2022-12-29T13:23:05;53297.97;;;-138.15;52.27
20897;BME280;10608;42.600;23.398;2022-12-29T13:44:30;53297.97;;;-138.15;53.88
20897;BME280;10608;42.600;23.398;2022-12-29T13:46:59;53278.22;;;-138.15;54.08
20897;BME280;10608;42.600;23.398;2022-12-29T13:49:27;53325.56;;;-138.15;54.12
20897;BME280;10608;42.600;23.398;2022-12-29T13:52:18;53282.19;;;-138.15;54.41
20897;BME280;10608;42.600;23.398;2022-12-29T13:59:52;53280.19;;;-138.15;54.48
20897;BME280;10608;42.600;23.398;2022-12-29T14:07:49;53323.59;;;-138.15;55.69
20897;BME280;10608;42.600;23.398;2022-12-29T14:10:36;53341.34;;;-138.15;55.69
20897;BME280;10608;42.600;23.398;2022-12-29T14:13:13;53294.00;;;-138.15;55.55
20897;BME280;10608;42.600;23.398;2022-12-29T14:15:41;53323.59;;;-138.15;55.33
20897;BME280;10608;42.600;23.398;2022-12-29T14:18:17;53335.44;;;-138.15;56.00
20897;BME280;10608;42.600;23.398;2022-12-29T14:20:58;53317.69;;;-138.15;57.04
20897;BME280;10608;42.600;23.398;2022-12-29T14:28:32;53311.75;;;-138.15;57.27
20897;BME280;10608;42.600;23.398;2022-12-29T14:30:59;53323.59;;;-138.15;57.94
20897;BME280;10608;42.600;23.398;2022-12-29T14:33:30;53327.53;;;-138.15;58.28
20897;BME280;10608;42.600;23.398;2022-12-29T14:35:57;53335.44;;;-138.15;58.63
20897;BME280;10608;42.600;23.398;2022-12-29T14:38:46;53313.75;;;-138.15;58.09
20897;BME280;10608;42.600;23.398;2022-12-29T14:41:17;53319.66;;;-138.15;58.70
20897;BME280;10608;42.600;23.398;2022-12-29T14:44:02;53301.91;;;-138.15;59.33
20897;BME280;10608;42.600;23.398;2022-12-29T14:47:05;53290.06;;;-138.15;59.93
20897;BME280;10608;42.600;23.398;2022-12-29T14:49:41;53327.53;;;-138.15;60.56
20897;BME280;10608;42.600;23.398;2022-12-29T14:54:45;53319.66;;;-138.15;61.93
20897;BME280;10608;42.600;23.398;2022-12-29T14:57:20;53290.06;;;-138.15;61.88
20897;BME280;10608;42.600;23.398;2022-12-29T14:59:47;53309.78;;;-138.15;62.63
20897;BME280;10608;42.600;23.398;2022-12-29T15:02:20;53357.13;;;-138.15;62.87
20897;BME280;10608;42.600;23.398;2022-12-29T15:04:47;53290.06;;;-138.15;63.66
20897;BME280;10608;42.600;23.398;2022-12-29T15:07:13;62864.19;;;-138.16;100.00
20897;BME280;10608;42.600;23.398;2022-12-29T15:09:43;62864.19;;;-138.16;100.00
20897;BME280;10608;42.600;23.398;2022-12-29T15:14:49;62864.19;;;-138.16;100.00